Time;durP1;ratioP1;P1;durP2;ratioP2;P2;SDS_P1;SDS_P2;PMS_P1;PMS_P2;Temp;Humidity;BMP_temperature;BMP_pressure;BME280_temperature;BME280_humidity;BME280_pressure;Samples;Min_cycle;Max_cycle;Signal;HPM_P1;HPM_P2
2023/01/19 00:01:39;;;;;;;2.92;0.80;;;5.20;97.30;;;;;;5041899;28;20099;-74
2023/01/19 00:04:05;;;;;;;3.70;0.75;;;5.20;97.40;;;;;;5041097;28;20037;-73
2023/01/19 00:06:31;;;;;;;1.77;0.60;;;5.20;97.40;;;;;;5045785;28;20014;-74
2023/01/19 00:08:58;;;;;;;1.85;0.50;;;5.20;97.50;;;;;;5045136;28;20021;-74
2023/01/19 00:11:25;;;;;;;2.15;0.60;;;5.20;97.50;;;;;;5050388;28;20033;-76
2023/01/19 00:13:52;;;;;;;2.15;0.65;;;5.10;97.50;;;;;;5047989;28;20040;-73
2023/01/19 00:16:21;;;;;;;1.17;0.40;;;5.10;97.40;;;;;;5048392;28;20147;-75
2023/01/19 00:18:47;;;;;;;1.42;0.43;;;5.10;97.50;;;;;;5046245;28;20025;-74
2023/01/19 00:21:13;;;;;;;2.50;0.50;;;5.20;97.50;;;;;;5045247;28;20033;-74
2023/01/19 00:23:39;;;;;;;2.00;0.50;;;5.20;97.50;;;;;;5045369;28;20025;-73
2023/01/19 00:26:05;;;;;;;1.40;0.50;;;5.10;97.50;;;;;;5045854;28;20028;-74
2023/01/19 00:28:31;;;;;;;1.90;0.50;;;5.10;97.50;;;;;;5045789;28;20025;-74
2023/01/19 00:30:57;;;;;;;1.52;0.50;;;5.20;97.10;;;;;;5047143;28;20099;-73
2023/01/19 00:33:22;;;;;;;0.75;0.20;;;5.20;96.60;;;;;;5045525;28;20037;-73
2023/01/19 00:35:53;;;;;;;1.25;0.35;;;5.40;96.20;;;;;;5045576;28;20057;-73
2023/01/19 00:38:19;;;;;;;2.80;0.85;;;5.30;96.70;;;;;;5051654;28;20051;-74
2023/01/19 00:40:46;;;;;;;1.80;0.60;;;5.20;97.20;;;;;;5045528;28;20112;-74
2023/01/19 00:43:12;;;;;;;2.78;0.47;;;5.20;97.20;;;;;;5048808;28;20025;-74
2023/01/19 00:45:37;;;;;;;2.50;0.70;;;5.20;97.10;;;;;;5049883;28;20044;-73
2023/01/19 00:48:03;;;;;;;2.13;0.60;;;5.20;96.70;;;;;;5043628;28;20025;-75
2023/01/19 00:50:30;;;;;;;1.90;0.60;;;5.30;96.10;;;;;;5049098;28;20115;-74
2023/01/19 00:52:59;;;;;;;1.10;0.30;;;5.30;96.00;;;;;;5045136;28;20124;-74
2023/01/19 00:55:27;;;;;;;1.50;0.40;;;5.30;95.60;;;;;;5047158;28;20029;-74
2023/01/19 00:57:53;;;;;;;0.57;0.22;;;5.40;95.60;;;;;;5043762;28;20036;-74
2023/01/19 01:00:20;;;;;;;1.00;0.40;;;5.30;95.50;;;;;;5051682;28;20021;-75
2023/01/19 01:02:47;;;;;;;0.85;0.32;;;5.30;95.50;;;;;;5045776;28;20415;-74
2023/01/19 01:05:15;;;;;;;1.58;0.50;;;5.20;95.60;;;;;;5047276;28;20021;-74
2023/01/19 01:07:41;;;;;;;1.30;0.30;;;5.30;95.50;;;;;;5046113;28;20021;-74
2023/01/19 01:10:08;;;;;;;0.77;0.30;;;5.30;95.20;;;;;;5050561;28;20025;-74
2023/01/19 01:12:34;;;;;;;0.77;0.40;;;5.40;95.20;;;;;;5042657;28;20501;-74
2023/01/19 01:15:00;;;;;;;1.40;0.32;;;5.30;95.30;;;;;;5047524;28;20033;-74
2023/01/19 01:17:26;;;;;;;0.93;0.38;;;5.20;95.80;;;;;;5042707;28;20036;-75
2023/01/19 01:19:52;;;;;;;1.67;0.47;;;5.10;96.10;;;;;;5049957;28;20076;-76
2023/01/19 01:22:18;;;;;;;1.48;0.22;;;5.10;95.70;;;;;;5049967;28;20071;-76
2023/01/19 01:24:45;;;;;;;2.25;0.38;;;5.10;95.50;;;;;;5024087;28;20029;-75
2023/01/19 01:27:12;;;;;;;;;;;5.10;95.80;;;;;;5049871;28;20171;-73
2023/01/19 01:29:40;;;;;;;0.60;0.20;;;5.10;95.60;;;;;;5047597;28;19966;-74
2023/01/19 01:32:06;;;;;;;1.38;0.20;;;5.20;95.00;;;;;;5049613;28;20033;-74
2023/01/19 01:34:33;;;;;;;0.32;0.15;;;5.20;95.00;;;;;;5045849;28;20127;-74
2023/01/19 01:36:59;;;;;;;0.98;0.25;;;5.20;95.10;;;;;;5047547;28;20399;-75
2023/01/19 01:39:24;;;;;;;1.52;0.30;;;5.20;95.20;;;;;;5049597;28;20021;-74
2023/01/19 01:41:50;;;;;;;1.30;0.38;;;5.20;95.00;;;;;;5045701;28;20040;-74
2023/01/19 01:44:49;;;;;;;0.47;0.22;;;5.20;95.00;;;;;;5060453;28;20040;-73
2023/01/19 01:47:26;;;;;;;0.60;0.30;;;5.20;94.80;;;;;;5049776;28;20033;-74
2023/01/19 01:49:58;;;;;;;1.40;0.50;;;5.10;95.60;;;;;;5045383;28;20362;-74
2023/01/19 01:52:28;;;;;;;0.82;0.35;;;4.90;96.20;;;;;;5046024;28;20108;-74
2023/01/19 01:54:54;;;;;;;1.02;0.40;;;4.90;96.70;;;;;;5046913;28;20021;-73
2023/01/19 01:57:21;;;;;;;0.68;0.38;;;4.90;96.70;;;;;;5043321;28;20040;-74
2023/01/19 01:59:49;;;;;;;1.15;0.68;;;4.80;96.70;;;;;;5039107;28;20038;-73
2023/01/19 02:05:09;;;;;;;0.88;0.22;;;4.90;96.40;;;;;;5053112;28;20120;-74
2023/01/19 02:13:35;;;;;;;1.60;0.40;;;5.20;94.80;;;;;;5048714;28;20555;-74
2023/01/19 02:16:05;;;;;;;0.95;0.20;;;5.20;95.10;;;;;;5046285;28;20029;-74
2023/01/19 02:18:31;;;;;;;1.00;0.30;;;5.10;95.40;;;;;;5046743;28;20033;-74
2023/01/19 02:20:57;;;;;;;0.65;0.25;;;5.10;95.30;;;;;;5048340;28;20036;-74
2023/01/19 02:23:45;;;;;;;0.50;0.30;;;5.20;95.20;;;;;;5045931;28;20040;-74
2023/01/19 02:26:27;;;;;;;2.53;0.50;;;5.20;95.00;;;;;;5042980;28;20034;-74
2023/01/19 02:28:58;;;;;;;0.65;0.30;;;5.10;95.40;;;;;;5050618;28;20028;-74
2023/01/19 02:31:25;;;;;;;0.98;0.40;;;5.00;95.50;;;;;;5049967;28;20159;-75
2023/01/19 02:33:52;;;;;;;0.55;0.22;;;5.20;94.90;;;;;;5046774;28;20155;-73
2023/01/19 02:36:23;;;;;;;0.60;0.30;;;5.10;94.80;;;;;;5051200;28;20032;-74
2023/01/19 02:38:52;;;;;;;0.65;0.28;;;5.20;94.80;;;;;;5050924;28;20032;-74
2023/01/19 02:41:21;;;;;;;0.90;0.30;;;5.20;94.30;;;;;;5048118;28;20028;-74
2023/01/19 02:43:48;;;;;;;1.27;0.30;;;5.30;94.30;;;;;;5061405;28;20357;-74
2023/01/19 02:46:14;;;;;;;1.05;0.40;;;5.20;94.50;;;;;;5047170;28;20593;-74
2023/01/19 02:48:41;;;;;;;0.88;0.30;;;5.20;94.50;;;;;;5047826;28;20022;-75
2023/01/19 02:51:26;;;;;;;0.80;0.20;;;5.20;94.80;;;;;;5044511;28;20126;-73
2023/01/19 02:54:27;;;;;;;0.63;0.20;;;5.10;94.90;;;;;;5061326;28;20037;-76
2023/01/19 02:57:19;;;;;;;0.73;0.30;;;5.10;94.60;;;;;;5049062;28;20017;-73
2023/01/19 03:00:22;;;;;;;1.70;0.40;;;5.10;94.80;;;;;;5044212;28;20075;-74
2023/01/19 03:03:04;;;;;;;0.68;0.20;;;5.10;94.70;;;;;;5064518;28;20041;-74
2023/01/19 03:06:00;;;;;;;1.13;0.30;;;5.00;95.00;;;;;;5045310;28;20036;-74
2023/01/19 03:08:46;;;;;;;0.80;0.30;;;4.90;95.30;;;;;;5030522;28;20136;-74
2023/01/19 03:11:13;;;;;;;0.85;0.20;;;4.90;95.00;;;;;;5049781;28;20049;-73
2023/01/19 03:14:07;;;;;;;0.73;0.28;;;4.90;95.00;;;;;;5049968;28;20163;-73
2023/01/19 03:16:48;;;;;;;0.47;0.20;;;4.90;94.90;;;;;;5043698;28;20021;-75
2023/01/19 03:19:26;;;;;;;0.55;0.17;;;4.90;94.90;;;;;;5040431;28;20049;-74
2023/01/19 03:22:02;;;;;;;1.60;0.40;;;4.90;95.00;;;;;;5051875;28;20439;-73
2023/01/19 03:24:33;;;;;;;0.47;0.20;;;4.90;95.20;;;;;;5046242;28;20045;-73
2023/01/19 03:27:27;;;;;;;0.40;0.20;;;4.90;95.30;;;;;;5045014;28;20449;-73
2023/01/19 03:30:17;;;;;;;0.25;0.20;;;4.90;95.20;;;;;;5043229;28;20025;-74
2023/01/19 03:32:50;;;;;;;0.60;0.20;;;4.90;95.30;;;;;;5042373;28;20452;-74
2023/01/19 03:35:18;;;;;;;0.38;0.20;;;4.80;95.20;;;;;;5058975;28;20068;-74
2023/01/19 03:37:50;;;;;;;1.08;0.40;;;4.80;95.20;;;;;;5047245;28;20029;-73
2023/01/19 03:40:16;;;;;;;0.80;0.20;;;4.90;95.00;;;;;;5044689;28;20039;-74
2023/01/19 03:42:43;;;;;;;0.55;0.13;;;4.90;95.00;;;;;;5047907;28;20017;-74
2023/01/19 03:45:12;;;;;;;2.35;0.65;;;4.90;94.90;;;;;;5053818;28;20026;-74
2023/01/19 03:47:39;;;;;;;0.40;0.20;;;4.90;95.10;;;;;;5050516;28;20021;-73
2023/01/19 03:50:10;;;;;;;0.68;0.20;;;4.80;95.20;;;;;;5036042;28;20052;-74
2023/01/19 03:52:36;;;;;;;1.08;0.30;;;4.80;95.10;;;;;;5048733;28;20049;-74
2023/01/19 03:55:04;;;;;;;0.73;0.20;;;4.80;95.10;;;;;;5057104;28;20028;-73
2023/01/19 03:57:30;;;;;;;0.85;0.20;;;4.90;94.80;;;;;;5052408;28;20487;-74
2023/01/19 03:59:56;;;;;;;2.17;0.40;;;4.90;94.90;;;;;;5035895;28;20028;-74
2023/01/19 04:02:23;;;;;;;0.50;0.15;;;4.90;94.90;;;;;;5058307;28;20026;-73
2023/01/19 04:04:49;;;;;;;1.02;0.25;;;5.00;94.70;;;;;;5052670;28;20398;-74
2023/01/19 04:07:15;;;;;;;0.52;0.22;;;4.90;95.00;;;;;;5054435;28;20087;-74
2023/01/19 04:09:41;;;;;;;0.35;0.17;;;4.90;94.60;;;;;;5051787;28;20025;-74
2023/01/19 04:12:07;;;;;;;0.20;0.10;;;4.90;94.90;;;;;;5050579;28;20025;-74
2023/01/19 04:14:35;;;;;;;0.70;0.40;;;4.90;94.60;;;;;;5055164;28;20044;-74
2023/01/19 04:17:00;;;;;;;0.60;0.17;;;4.80;94.90;;;;;;5056605;28;20025;-75
2023/01/19 04:19:28;;;;;;;0.43;0.20;;;4.80;94.50;;;;;;5056294;28;20095;-75
2023/01/19 04:21:55;;;;;;;0.82;0.30;;;4.90;94.10;;;;;;5050668;28;20125;-74
2023/01/19 04:24:21;;;;;;;0.50;0.20;;;5.00;93.90;;;;;;5049625;28;20022;-73
2023/01/19 04:26:49;;;;;;;0.52;0.20;;;5.00;93.70;;;;;;5048765;28;20512;-74
2023/01/19 04:29:15;;;;;;;0.40;0.10;;;5.00;93.40;;;;;;5049985;28;20036;-74
2023/01/19 04:31:40;;;;;;;1.98;0.28;;;5.00;93.30;;;;;;5055820;28;20029;-75
2023/01/19 04:34:06;;;;;;;0.50;0.10;;;4.90;93.40;;;;;;5049797;28;20461;-74
2023/01/19 04:36:32;;;;;;;0.93;0.25;;;5.00;93.10;;;;;;5052488;28;20040;-74
2023/01/19 04:38:58;;;;;;;0.73;0.10;;;4.90;93.20;;;;;;5054863;28;20093;-74
2023/01/19 04:41:23;;;;;;;0.88;0.10;;;5.00;93.00;;;;;;5051519;28;20526;-74
2023/01/19 04:43:49;;;;;;;1.08;0.20;;;5.00;92.80;;;;;;5058977;28;20086;-74
2023/01/19 04:46:15;;;;;;;0.43;0.25;;;5.10;92.80;;;;;;5036893;28;20450;-74
2023/01/19 04:48:41;;;;;;;0.95;0.30;;;5.00;93.10;;;;;;5051386;28;20041;-75
2023/01/19 04:51:07;;;;;;;1.52;0.30;;;5.00;93.20;;;;;;5055281;28;20112;-74
2023/01/19 04:53:35;;;;;;;0.15;0.10;;;5.00;93.50;;;;;;5052434;28;20032;-74
2023/01/19 04:56:01;;;;;;;0.60;0.10;;;4.90;93.60;;;;;;5051537;28;20833;-75
2023/01/19 04:58:26;;;;;;;1.02;0.20;;;4.90;94.00;;;;;;5048484;28;20108;-73
2023/01/19 05:00:52;;;;;;;1.17;0.30;;;4.80;94.40;;;;;;5047945;28;20388;-74
2023/01/19 05:03:18;;;;;;;0.85;0.20;;;4.80;94.70;;;;;;5048744;28;20081;-75
2023/01/19 05:05:45;;;;;;;0.73;0.20;;;4.80;95.00;;;;;;5049256;28;20021;-73
2023/01/19 05:08:11;;;;;;;0.93;0.30;;;4.70;95.30;;;;;;5052210;28;20029;-73
2023/01/19 05:10:37;;;;;;;0.60;0.30;;;4.80;95.50;;;;;;5052149;28;20158;-73
2023/01/19 05:13:04;;;;;;;0.65;0.20;;;4.70;95.70;;;;;;5050348;28;20059;-75
2023/01/19 05:15:30;;;;;;;0.88;0.30;;;4.70;95.60;;;;;;5050797;28;20083;-74
2023/01/19 05:17:56;;;;;;;1.17;0.20;;;4.70;95.80;;;;;;5053810;28;20029;-74
2023/01/19 05:20:23;;;;;;;1.10;0.22;;;4.70;96.00;;;;;;5049127;28;20405;-74
2023/01/19 05:22:51;;;;;;;1.40;0.50;;;4.70;96.10;;;;;;5047386;28;20029;-75
2023/01/19 05:25:17;;;;;;;;;;;4.70;96.30;;;;;;5045880;28;20026;-74
2023/01/19 05:27:43;;;;;;;1.38;0.20;;;4.60;96.20;;;;;;5030193;28;19952;-75
2023/01/19 05:30:10;;;;;;;0.85;0.28;;;4.60;96.40;;;;;;5047570;28;20029;-75
2023/01/19 05:32:35;;;;;;;2.10;0.35;;;4.70;96.00;;;;;;5052265;28;20030;-74
2023/01/19 05:35:01;;;;;;;0.43;0.30;;;4.70;96.40;;;;;;5043290;28;20090;-74
2023/01/19 05:37:27;;;;;;;0.88;0.50;;;4.70;96.30;;;;;;5050122;28;20029;-75
2023/01/19 05:39:53;;;;;;;1.20;0.38;;;4.60;96.00;;;;;;5056437;28;20544;-74
2023/01/19 05:42:19;;;;;;;1.65;0.65;;;4.60;95.90;;;;;;5053922;28;20033;-74
2023/01/19 05:44:45;;;;;;;0.82;0.30;;;4.70;95.90;;;;;;5045437;28;20032;-74
2023/01/19 05:47:11;;;;;;;0.30;0.20;;;4.60;96.40;;;;;;5047050;28;20025;-75
2023/01/19 05:49:37;;;;;;;1.25;0.30;;;4.60;96.70;;;;;;5048109;28;20029;-75
2023/01/19 05:52:03;;;;;;;0.85;0.35;;;4.50;96.50;;;;;;5052154;28;20491;-75
2023/01/19 05:54:28;;;;;;;1.75;0.32;;;4.50;96.90;;;;;;5047299;28;20071;-75
2023/01/19 05:56:54;;;;;;;0.68;0.20;;;4.50;96.90;;;;;;5048580;28;20025;-74
2023/01/19 05:59:22;;;;;;;0.50;0.10;;;4.60;97.20;;;;;;5059999;28;20031;-75
2023/01/19 06:01:52;;;;;;;1.10;0.20;;;4.60;97.10;;;;;;5044575;28;20029;-75
2023/01/19 06:04:20;;;;;;;0.93;0.30;;;4.50;97.20;;;;;;5045644;28;20036;-74
2023/01/19 06:06:50;;;;;;;0.88;0.28;;;4.50;97.30;;;;;;5018114;28;20128;-74
2023/01/19 06:09:16;;;;;;;0.85;0.30;;;4.50;97.20;;;;;;5047208;28;20055;-76
2023/01/19 06:11:43;;;;;;;1.80;0.40;;;4.50;97.30;;;;;;5047855;28;20063;-74
2023/01/19 06:14:10;;;;;;;2.08;0.50;;;4.50;97.50;;;;;;5048723;28;20076;-74
2023/01/19 06:16:36;;;;;;;0.93;0.30;;;4.60;97.70;;;;;;5048845;28;20025;-76
2023/01/19 06:19:02;;;;;;;0.63;0.20;;;4.40;97.90;;;;;;5053590;28;20038;-75
2023/01/19 06:21:27;;;;;;;0.98;0.35;;;4.40;98.30;;;;;;5048043;28;20025;-75
2023/01/19 06:23:55;;;;;;;1.00;0.32;;;4.40;98.40;;;;;;5047320;28;20029;-75
2023/01/19 06:26:20;;;;;;;1.02;0.30;;;4.40;98.40;;;;;;5048659;28;20025;-74
2023/01/19 06:28:47;;;;;;;1.75;0.30;;;4.30;98.60;;;;;;5055693;28;20112;-76
2023/01/19 06:31:13;;;;;;;0.75;0.28;;;4.40;98.40;;;;;;5050585;28;20029;-75
2023/01/19 06:33:39;;;;;;;0.73;0.40;;;4.40;98.60;;;;;;5048005;28;20026;-76
2023/01/19 06:36:05;;;;;;;1.55;0.45;;;4.40;98.70;;;;;;5048983;28;20067;-74
2023/01/19 06:38:31;;;;;;;2.67;0.30;;;4.30;98.90;;;;;;5047308;28;20110;-75
2023/01/19 06:40:58;;;;;;;1.45;0.50;;;4.30;98.90;;;;;;5047778;28;20357;-74
2023/01/19 06:43:24;;;;;;;0.88;0.30;;;4.40;98.90;;;;;;5052843;28;20037;-73
2023/01/19 06:45:50;;;;;;;1.38;0.30;;;4.30;99.00;;;;;;5050710;28;20040;-75
2023/01/19 06:48:16;;;;;;;1.10;0.40;;;4.40;98.80;;;;;;5054033;28;20021;-75
2023/01/19 06:50:44;;;;;;;0.60;0.20;;;4.40;98.90;;;;;;5050867;28;20029;-75
2023/01/19 06:53:11;;;;;;;0.50;0.30;;;4.30;99.00;;;;;;5047353;28;20040;-74
2023/01/19 06:55:38;;;;;;;0.80;0.22;;;4.30;99.10;;;;;;5048266;28;20029;-74
2023/01/19 06:58:04;;;;;;;0.80;0.20;;;4.30;99.00;;;;;;5049903;28;20029;-75
2023/01/19 07:00:29;;;;;;;1.05;0.40;;;4.30;98.90;;;;;;5020882;28;20037;-75
2023/01/19 07:02:55;;;;;;;0.88;0.32;;;4.30;99.20;;;;;;5046126;28;20037;-75
2023/01/19 07:05:21;;;;;;;1.08;0.35;;;4.40;99.00;;;;;;5052859;28;20618;-74
2023/01/19 07:07:53;;;;;;;0.93;0.40;;;4.40;99.40;;;;;;5055201;28;20029;-75
2023/01/19 07:10:20;;;;;;;2.05;0.40;;;4.30;99.30;;;;;;5047940;28;20029;-75
2023/01/19 07:12:46;;;;;;;1.63;0.30;;;4.40;99.00;;;;;;5027219;28;20032;-75
2023/01/19 07:15:14;;;;;;;0.80;0.28;;;4.30;99.20;;;;;;5047848;28;20029;-74
2023/01/19 07:17:41;;;;;;;;;;;4.40;99.00;;;;;;5024247;28;20029;-75
2023/01/19 07:20:10;;;;;;;2.10;0.30;;;4.40;99.10;;;;;;5043443;28;20058;-74
2023/01/19 07:22:36;;;;;;;0.35;0.22;;;4.30;98.90;;;;;;5046749;28;20364;-75
2023/01/19 07:25:01;;;;;;;1.10;0.20;;;4.30;99.00;;;;;;5048422;28;20025;-74
2023/01/19 07:27:28;;;;;;;1.13;0.45;;;4.40;98.70;;;;;;5047144;28;20410;-74
2023/01/19 07:29:53;;;;;;;0.60;0.20;;;4.40;98.50;;;;;;5043116;28;20029;-76
2023/01/19 07:32:19;;;;;;;2.13;0.30;;;4.50;98.50;;;;;;5024159;28;20047;-75
2023/01/19 07:34:45;;;;;;;0.77;0.30;;;4.50;98.40;;;;;;5049758;28;20021;-76
2023/01/19 07:37:11;;;;;;;0.70;0.25;;;4.50;98.50;;;;;;5048532;28;20068;-74
2023/01/19 07:39:36;;;;;;;3.40;0.38;;;4.50;98.60;;;;;;5047934;28;20025;-74
2023/01/19 07:42:03;;;;;;;0.98;0.30;;;4.50;98.80;;;;;;5050089;28;20052;-75
2023/01/19 07:44:29;;;;;;;1.95;0.40;;;4.50;98.60;;;;;;5046497;28;20057;-74
2023/01/19 07:46:54;;;;;;;1.05;0.30;;;4.60;98.50;;;;;;5044972;28;20056;-74
2023/01/19 07:49:20;;;;;;;1.85;0.35;;;4.50;98.70;;;;;;5046078;28;20451;-74
2023/01/19 07:51:46;;;;;;;0.63;0.20;;;4.60;98.70;;;;;;5044986;28;20025;-74
2023/01/19 07:54:12;;;;;;;0.95;0.40;;;4.60;98.70;;;;;;5049698;28;20453;-75
2023/01/19 07:56:37;;;;;;;0.93;0.28;;;4.60;98.70;;;;;;5060008;28;20113;-74
2023/01/19 07:59:03;;;;;;;1.42;0.40;;;4.70;98.50;;;;;;5047346;28;20464;-75
2023/01/19 08:01:30;;;;;;;0.70;0.30;;;4.70;98.70;;;;;;5041109;28;20427;-74
2023/01/19 08:03:55;;;;;;;1.85;0.40;;;4.70;98.70;;;;;;5046338;28;20581;-75
2023/01/19 08:06:25;;;;;;;1.48;0.40;;;4.70;98.50;;;;;;5044462;28;20052;-75
2023/01/19 08:08:52;;;;;;;0.57;0.30;;;4.80;98.60;;;;;;5045667;28;20022;-75
2023/01/19 08:11:18;;;;;;;2.13;0.47;;;4.80;98.50;;;;;;5045485;28;20051;-76
2023/01/19 08:13:44;;;;;;;1.35;0.40;;;4.80;98.50;;;;;;5045694;28;20033;-74
2023/01/19 08:16:09;;;;;;;1.40;0.50;;;4.80;98.50;;;;;;5046127;28;20033;-75
2023/01/19 08:18:35;;;;;;;0.95;0.32;;;4.80;98.20;;;;;;5043913;28;20040;-75
2023/01/19 08:21:01;;;;;;;1.67;0.50;;;4.90;98.10;;;;;;5044278;28;20038;-75
2023/01/19 08:23:27;;;;;;;1.73;0.40;;;4.90;98.00;;;;;;5044684;28;20029;-75
2023/01/19 08:25:54;;;;;;;1.27;0.40;;;5.00;97.90;;;;;;5016891;28;20037;-76
2023/01/19 08:28:20;;;;;;;2.72;0.63;;;5.00;97.90;;;;;;5014865;28;20399;-76
2023/01/19 08:30:52;;;;;;;2.22;0.45;;;5.50;97.60;;;;;;5051212;28;20117;-76
2023/01/19 08:33:19;;;;;;;4.10;0.80;;;7.10;95.90;;;;;;5049836;28;20143;-75
2023/01/19 08:35:49;;;;;;;1.33;0.52;;;7.50;94.80;;;;;;5050559;28;20029;-75
2023/01/19 08:38:15;;;;;;;4.25;0.93;;;7.80;94.10;;;;;;5052527;28;20025;-75
2023/01/19 08:40:42;;;;;;;2.58;0.60;;;8.30;93.70;;;;;;5055288;28;20024;-76
2023/01/19 08:43:10;;;;;;;2.00;1.00;;;8.20;93.30;;;;;;5054759;28;20435;-76
2023/01/19 08:45:40;;;;;;;1.48;0.70;;;8.30;93.30;;;;;;5058270;28;20056;-76
2023/01/19 08:48:06;;;;;;;1.60;0.68;;;8.60;92.90;;;;;;5056654;28;20040;-77
2023/01/19 08:50:33;;;;;;;2.00;0.63;;;8.60;92.90;;;;;;5060357;28;20476;-76
2023/01/19 08:53:00;;;;;;;4.15;0.70;;;8.30;93.10;;;;;;5048945;28;20052;-76
2023/01/19 08:55:28;;;;;;;2.47;0.80;;;8.50;92.80;;;;;;5056153;28;20021;-76
2023/01/19 08:57:56;;;;;;;2.83;1.25;;;8.80;93.10;;;;;;5052204;28;20025;-77
2023/01/19 09:00:24;;;;;;;1.85;0.80;;;8.90;93.10;;;;;;5047794;28;20079;-76
2023/01/19 09:02:50;;;;;;;1.13;0.55;;;9.40;92.40;;;;;;5055406;28;20138;-77
2023/01/19 09:05:16;;;;;;;1.50;0.60;;;9.50;92.20;;;;;;5055638;28;20483;-77
2023/01/19 09:07:45;;;;;;;1.58;0.60;;;9.20;92.10;;;;;;5029522;28;20029;-76
2023/01/19 09:10:11;;;;;;;2.00;0.82;;;8.60;92.70;;;;;;5035051;28;20071;-77
2023/01/19 09:12:37;;;;;;;3.72;0.88;;;7.90;93.30;;;;;;5062863;28;20030;-77
2023/01/19 09:15:04;;;;;;;1.83;0.80;;;7.70;93.90;;;;;;5050131;28;20036;-76
2023/01/19 09:17:29;;;;;;;2.30;1.08;;;7.40;94.10;;;;;;5048277;28;20037;-76
2023/01/19 09:19:57;;;;;;;3.72;1.08;;;7.30;94.30;;;;;;5056419;28;20029;-76
2023/01/19 09:22:23;;;;;;;3.67;0.88;;;7.30;94.10;;;;;;5048720;28;20441;-76
2023/01/19 09:24:48;;;;;;;2.33;1.00;;;7.40;94.00;;;;;;5053003;28;20376;-76
2023/01/19 09:27:14;;;;;;;3.92;0.70;;;7.50;93.90;;;;;;5050615;28;20029;-77
2023/01/19 09:29:40;;;;;;;3.67;1.25;;;7.40;93.90;;;;;;5069131;28;20026;-77
2023/01/19 09:32:06;;;;;;;2.10;0.75;;;7.40;94.10;;;;;;5052877;28;20021;-76
2023/01/19 09:34:32;;;;;;;2.03;0.65;;;7.50;93.50;;;;;;5057385;28;20033;-76
2023/01/19 09:36:58;;;;;;;2.38;0.70;;;7.40;93.30;;;;;;5050739;28;20037;-76
2023/01/19 09:39:23;;;;;;;1.77;0.68;;;7.50;93.90;;;;;;5049422;28;20039;-77
2023/01/19 09:42:00;;;;;;;1.38;0.57;;;7.60;93.80;;;;;;5051061;28;20030;-76
2023/01/19 09:44:33;;;;;;;2.78;0.90;;;7.70;93.70;;;;;;5051502;28;20036;-76
2023/01/19 09:47:02;;;;;;;1.58;0.70;;;8.00;93.60;;;;;;5046586;28;20025;-76
2023/01/19 09:49:38;;;;;;;2.25;0.50;;;8.20;93.30;;;;;;5049832;28;20091;-76
2023/01/19 09:52:08;;;;;;;2.00;0.60;;;8.30;93.20;;;;;;5046418;28;20048;-77
2023/01/19 09:54:56;;;;;;;3.25;0.55;;;8.30;92.80;;;;;;5031741;28;20093;-76
2023/01/19 09:57:24;;;;;;;2.72;0.45;;;8.40;92.90;;;;;;5048856;28;20500;-77
2023/01/19 09:59:50;;;;;;;1.52;0.60;;;8.40;92.70;;;;;;5030749;28;20293;-76
2023/01/19 10:02:32;;;;;;;1.38;0.50;;;8.60;92.10;;;;;;5053204;28;20124;-76
2023/01/19 10:05:01;;;;;;;1.65;0.63;;;8.80;92.20;;;;;;5050304;28;20094;-77
2023/01/19 10:08:07;;;;;;;1.35;0.60;;;8.70;92.10;;;;;;5048206;28;20025;-76
2023/01/19 10:10:35;;;;;;;1.80;0.68;;;8.60;92.10;;;;;;5030351;28;20040;-76
2023/01/19 10:13:22;;;;;;;1.33;0.60;;;9.00;91.90;;;;;;5054075;28;20040;-76
2023/01/19 10:16:19;;;;;;;2.05;0.65;;;9.30;91.80;;;;;;5066318;28;20041;-76
2023/01/19 10:18:51;;;;;;;1.50;0.60;;;9.40;91.40;;;;;;5043543;28;20559;-77
2023/01/19 10:21:17;;;;;;;1.63;0.50;;;9.10;91.80;;;;;;5044556;28;20057;-76
2023/01/19 10:23:54;;;;;;;2.60;0.65;;;9.10;91.80;;;;;;5051493;28;20027;-77
2023/01/19 10:26:24;;;;;;;4.20;0.90;;;8.90;92.00;;;;;;5047636;28;20026;-77
2023/01/19 10:28:56;;;;;;;2.85;0.70;;;9.30;92.10;;;;;;5050216;28;20033;-75
2023/01/19 10:31:23;;;;;;;2.90;0.82;;;9.60;91.70;;;;;;5049075;28;20037;-75
2023/01/19 10:33:50;;;;;;;2.28;0.73;;;9.70;91.70;;;;;;5031125;28;20034;-76
2023/01/19 10:36:18;;;;;;;;;;;9.30;91.80;;;;;;5049398;28;20147;-77
2023/01/19 10:38:44;;;;;;;2.95;0.57;;;9.60;91.90;;;;;;5047469;28;19959;-77
2023/01/19 10:41:35;;;;;;;1.23;0.52;;;9.40;91.60;;;;;;5049080;28;20496;-76
2023/01/19 10:44:03;;;;;;;1.42;0.50;;;9.40;91.50;;;;;;5045180;28;20035;-76
2023/01/19 10:46:42;;;;;;;2.00;0.65;;;9.40;91.50;;;;;;5048052;28;20029;-76
2023/01/19 10:49:50;;;;;;;5.05;0.70;;;9.60;91.60;;;;;;5049522;28;20076;-76
2023/01/19 10:52:38;;;;;;;3.47;0.50;;;9.90;91.20;;;;;;5040986;28;20037;-76
2023/01/19 10:55:06;;;;;;;2.13;0.82;;;10.30;90.80;;;;;;5051645;28;20116;-77
2023/01/19 10:57:42;;;;;;;3.22;1.20;;;10.80;90.60;;;;;;5046545;28;20039;-76
2023/01/19 11:00:28;;;;;;;1.45;0.55;;;10.70;90.20;;;;;;5054532;28;20091;-76
2023/01/19 11:02:53;;;;;;;1.25;0.60;;;10.50;90.30;;;;;;5045485;28;20045;-76
2023/01/19 11:05:25;;;;;;;2.53;0.70;;;10.70;90.30;;;;;;5030642;28;20112;-75
2023/01/19 11:07:51;;;;;;;1.45;0.52;;;10.80;89.40;;;;;;5047162;28;20044;-76
2023/01/19 11:10:22;;;;;;;2.17;0.80;;;11.20;88.50;;;;;;5050130;28;20033;-76
2023/01/19 11:13:01;;;;;;;2.95;0.50;;;11.50;88.70;;;;;;5045620;28;20033;-75
2023/01/19 11:15:32;;;;;;;1.30;0.47;;;11.40;87.90;;;;;;5050009;28;20051;-76
2023/01/19 11:17:58;;;;;;;1.85;0.50;;;11.30;87.60;;;;;;5060149;28;20044;-76
2023/01/19 11:20:51;;;;;;;2.42;0.73;;;11.60;87.60;;;;;;5053805;28;20068;-76
2023/01/19 11:23:31;;;;;;;3.75;0.60;;;11.40;86.90;;;;;;5010838;28;20037;-76
2023/01/19 11:26:56;;;;;;;1.17;0.50;;;11.70;86.40;;;;;;5041891;28;20970;-76
2023/01/19 11:29:26;;;;;;;1.67;0.77;;;11.40;87.20;;;;;;5065284;28;20025;-77
2023/01/19 11:31:53;;;;;;;2.30;0.60;;;12.10;86.20;;;;;;5064602;28;20028;-76
2023/01/19 11:34:25;;;;;;;1.75;0.50;;;11.80;86.30;;;;;;5069382;28;20036;-76
2023/01/19 11:37:05;;;;;;;1.63;0.70;;;11.50;87.00;;;;;;5064066;28;20024;-75
2023/01/19 11:39:49;;;;;;;3.10;0.60;;;11.20;87.60;;;;;;5062921;28;20053;-77
2023/01/19 11:42:16;;;;;;;1.02;0.40;;;11.50;87.20;;;;;;5061178;28;20025;-77
2023/01/19 11:45:13;;;;;;;1.67;0.60;;;12.30;86.40;;;;;;5057994;28;20087;-76
2023/01/19 11:47:44;;;;;;;1.67;0.60;;;12.80;84.90;;;;;;5060696;28;20039;-76
2023/01/19 11:50:35;;;;;;;2.22;0.60;;;12.90;84.90;;;;;;5063533;28;20021;-74
2023/01/19 11:53:23;;;;;;;1.65;0.70;;;12.40;83.80;;;;;;5057759;28;20014;-76
2023/01/19 11:56:03;;;;;;;2.65;0.80;;;12.70;84.20;;;;;;5062138;28;20036;-76
2023/01/19 11:58:31;;;;;;;2.35;0.65;;;12.50;84.70;;;;;;5061791;28;20044;-76
2023/01/19 12:01:20;;;;;;;1.33;0.80;;;12.40;85.30;;;;;;5057672;28;20021;-76
2023/01/19 12:03:50;;;;;;;1.77;0.55;;;12.80;84.10;;;;;;5070485;28;20120;-76
2023/01/19 12:06:24;;;;;;;1.85;0.70;;;12.50;84.40;;;;;;5056910;28;20029;-76
2023/01/19 12:09:19;;;;;;;1.27;0.70;;;12.10;85.30;;;;;;5074338;28;20384;-74
2023/01/19 12:11:54;;;;;;;5.25;0.80;;;12.20;85.40;;;;;;5062217;28;20039;-77
2023/01/19 12:14:30;;;;;;;1.70;0.65;;;12.40;85.20;;;;;;5069107;28;20024;-74
2023/01/19 12:16:59;;;;;;;1.45;0.47;;;12.00;85.70;;;;;;5052258;28;20028;-76
2023/01/19 12:19:39;;;;;;;1.35;0.63;;;12.70;85.60;;;;;;5062312;28;20065;-76
2023/01/19 12:32:35;;;;;;;2.50;0.90;;;12.80;85.00;;;;;;5665289;23;20056;-74
2023/01/19 12:35:01;;;;;;;2.92;0.88;;;12.80;85.30;;;;;;5014735;28;20662;-75
2023/01/19 12:40:02;;;;;;;3.20;1.05;;;13.30;85.50;;;;;;5087209;23;20112;-77
2023/01/19 12:42:29;;;;;;;2.20;0.80;;;12.80;85.40;;;;;;4991346;28;20030;-77
2023/01/19 12:45:03;;;;;;;2.83;0.93;;;13.40;84.60;;;;;;5006353;28;20026;-76
2023/01/19 12:47:29;;;;;;;1.50;0.85;;;12.70;86.20;;;;;;5007601;28;20034;-76
2023/01/19 12:50:02;;;;;;;2.55;1.10;;;13.10;85.10;;;;;;5010400;28;20053;-76
2023/01/19 12:52:50;;;;;;;1.50;0.85;;;13.50;85.00;;;;;;5006871;28;20113;-76
2023/01/19 12:55:32;;;;;;;2.63;0.82;;;13.30;85.30;;;;;;4989337;28;20032;-78
2023/01/19 13:01:20;;;;;;;2.38;0.98;;;13.20;84.90;;;;;;5004789;28;20033;-74
2023/01/19 13:04:00;;;;;;;2.28;1.05;;;13.00;84.80;;;;;;4999976;28;20820;-76
2023/01/19 13:06:47;;;;;;;2.45;1.13;;;12.80;85.20;;;;;;4987790;28;20118;-75
2023/01/19 13:09:31;;;;;;;3.08;1.10;;;13.00;85.90;;;;;;5000287;28;20380;-74
2023/01/19 13:12:20;;;;;;;3.53;1.10;;;13.30;85.00;;;;;;5004671;28;20028;-76
2023/01/19 13:14:46;;;;;;;4.10;1.08;;;14.10;84.40;;;;;;4989735;28;20026;-74
2023/01/19 13:17:32;;;;;;;2.72;0.85;;;13.40;84.40;;;;;;4991060;28;20712;-74
2023/01/19 13:20:20;;;;;;;6.38;0.95;;;13.20;85.10;;;;;;5006052;28;20037;-75
2023/01/19 13:22:49;;;;;;;3.15;1.10;;;13.40;84.40;;;;;;5004117;28;20026;-75
2023/01/19 13:25:30;;;;;;;3.28;0.82;;;13.90;84.40;;;;;;4987572;28;20045;-74
2023/01/19 13:27:56;;;;;;;1.90;0.88;;;14.40;82.60;;;;;;4975501;28;20022;-75
2023/01/19 13:30:26;;;;;;;3.05;0.93;;;14.30;82.60;;;;;;5003500;28;20030;-75
2023/01/19 13:32:55;;;;;;;2.17;0.70;;;14.90;82.50;;;;;;5002501;28;20038;-75
2023/01/19 13:35:23;;;;;;;2.50;0.93;;;14.50;81.70;;;;;;4992189;28;20025;-74
2023/01/19 13:37:50;;;;;;;2.95;1.08;;;13.80;82.60;;;;;;4988557;28;20112;-73